Terminal Aerodrome Forecast
Issued by NWS Wilmington, NC

Home | Current Version | Previous Version | Text Only | Print | Product List | Glossary On
Versions: 1 2 3 4 5 6 7 8 9 10 11 12 13 14 15 16 17 18
000
FTUS42 KILM 301126
TAFILM
TAF
KILM 301126Z 3012/0112 26008KT P6SM FEW250
     FM301900 20013KT P6SM SCT050 SCT090
     FM010400 21008KT P6SM VCSH FEW060 BKN120
     FM010800 23007KT P6SM FEW060 SCT160=

USA.gov is the U.S. government's official web portal to all federal, state and local government web resources and services.